Time;durP1;ratioP1;P1;durP2;ratioP2;P2;SDS_P1;SDS_P2;PMS_P1;PMS_P2;Temp;Humidity;BMP_temperature;BMP_pressure;BME280_temperature;BME280_humidity;BME280_pressure;Samples;Min_cycle;Max_cycle;Signal;HPM_P1;HPM_P2
2022/12/31 00:00:09;;;;;;;;;;;;;;;5.04;75.04;97327.47;4961551;28;2254;-80
2022/12/31 00:02:36;;;;;;;;;;;;;;;5.04;75.19;97327.47;4960789;28;2259;-79
2022/12/31 00:05:03;;;;;;;;;;;;;;;5.02;75.28;97316.25;4945647;28;2370;-79
2022/12/31 00:07:29;;;;;;;;;;;;;;;5.08;75.07;97311.75;4963747;28;2201;-79
2022/12/31 00:09:56;;;;;;;;;;;;;;;5.09;75.03;97302.66;4959751;28;2661;-79
2022/12/31 00:12:22;;;;;;;;;;;;;;;5.06;75.08;97309.34;4962307;28;2340;-80
2022/12/31 00:14:49;;;;;;;;;;;;;;;5.15;74.97;97314.97;4964108;28;2547;-79
2022/12/31 00:17:15;;;;;;;;;;;;;;;5.08;74.89;97311.75;4943038;28;2360;-79
2022/12/31 00:19:42;;;;;;;;;;;;;;;5.14;74.68;97294.69;4943737;28;2279;-79
2022/12/31 00:22:08;;;;;;;;;;;;;;;5.12;74.78;97292.31;4962262;28;2273;-79
2022/12/31 00:24:35;;;;;;;;;;;;;;;5.12;74.96;97291.50;4959539;28;2296;-79
2022/12/31 00:27:02;;;;;;;;;;;;;;;5.08;75.05;97290.41;4962785;28;2241;-79
2022/12/31 00:29:28;;;;;;;;;;;;;;;5.05;75.18;97278.41;4963023;28;4969;-80
2022/12/31 00:31:55;;;;;;;;;;;;;;;5.06;75.21;97269.34;4961180;28;2310;-79
2022/12/31 00:34:21;;;;;;;;;;;;;;;5.07;75.10;97272.81;4958287;28;3603;-80
2022/12/31 00:36:48;;;;;;;;;;;;;;;5.09;75.11;97273.31;4962012;28;2436;-79
2022/12/31 00:39:14;;;;;;;;;;;;;;;5.06;75.18;97265.84;4967897;28;2360;-79
2022/12/31 00:41:42;;;;;;;;;;;;;;;5.09;74.99;97257.31;4962837;28;2309;-78
2022/12/31 00:44:09;;;;;;;;;;;;;;;5.09;74.91;97247.47;4957690;28;2378;-79
2022/12/31 00:46:35;;;;;;;;;;;;;;;5.12;74.94;97249.63;4960370;28;3637;-78
2022/12/31 00:49:02;;;;;;;;;;;;;;;5.09;75.16;97257.31;4940899;28;2323;-81
2022/12/31 00:51:28;;;;;;;;;;;;;;;5.11;74.98;97247.19;4961268;28;2462;-80
2022/12/31 00:53:55;;;;;;;;;;;;;;;5.18;75.01;97245.09;4960230;28;2300;-79
2022/12/31 00:56:21;;;;;;;;;;;;;;;5.10;74.99;97243.72;4942597;28;2338;-80
2022/12/31 00:58:48;;;;;;;;;;;;;;;5.11;75.30;97236.53;4960052;28;2358;-80
2022/12/31 01:01:15;;;;;;;;;;;;;;;5.15;74.96;97248.28;4958512;28;2272;-80
2022/12/31 01:03:41;;;;;;;;;;;;;;;5.11;75.08;97236.53;4944971;28;2276;-80
2022/12/31 01:06:08;;;;;;;;;;;;;;;5.10;75.14;97242.94;4963256;28;2672;-80
2022/12/31 01:08:34;;;;;;;;;;;;;;;5.09;75.33;97257.31;4956242;28;2257;-79
2022/12/31 01:11:20;;;;;;;;;;;;;;;5.09;75.29;97270.66;4959118;28;2486;-81
2022/12/31 01:13:48;;;;;;;;;;;;;;;5.13;75.36;97258.41;4946346;28;2462;-80
2022/12/31 01:16:15;;;;;;;;;;;;;;;5.15;75.13;97245.63;4966386;28;2404;-80
2022/12/31 01:18:41;;;;;;;;;;;;;;;5.12;75.20;97212.25;4945441;28;2382;-79
2022/12/31 01:21:07;;;;;;;;;;;;;;;5.12;75.26;97217.59;4963358;28;2312;-81
2022/12/31 01:23:34;;;;;;;;;;;;;;;5.15;75.29;97253.63;4966291;28;2274;-81
2022/12/31 01:26:01;;;;;;;;;;;;;;;5.12;75.18;97244.28;4944144;28;2435;-80
2022/12/31 01:28:28;;;;;;;;;;;;;;;5.10;75.24;97249.06;4946045;28;2200;-81
2022/12/31 01:30:54;;;;;;;;;;;;;;;5.13;75.29;97242.41;4964272;28;2396;-80
2022/12/31 01:33:21;;;;;;;;;;;;;;;5.10;75.34;97249.06;4961305;28;2282;-80
2022/12/31 01:35:47;;;;;;;;;;;;;;;5.11;75.52;97253.31;4960140;28;2543;-81
2022/12/31 01:38:14;;;;;;;;;;;;;;;5.12;75.44;97240.81;4948322;28;2277;-83
2022/12/31 01:40:41;;;;;;;;;;;;;;;5.14;75.33;97250.13;4966253;28;2266;-80
2022/12/31 01:43:07;;;;;;;;;;;;;;;5.13;75.55;97248.53;4967728;28;2467;-80
2022/12/31 01:45:34;;;;;;;;;;;;;;;5.09;75.60;97247.47;4945447;28;2368;-80
2022/12/31 01:48:00;;;;;;;;;;;;;;;5.13;75.63;97255.75;4961115;28;2493;-81
2022/12/31 01:50:27;;;;;;;;;;;;;;;5.13;75.66;97256.53;4944959;28;2206;-81
2022/12/31 01:52:53;;;;;;;;;;;;;;;5.14;75.55;97276.81;4960479;28;2259;-81
2022/12/31 01:55:20;;;;;;;;;;;;;;;5.16;75.44;97277.34;4963950;28;2304;-81
2022/12/31 01:57:46;;;;;;;;;;;;;;;5.11;75.48;97284.53;4961814;28;2267;-81
2022/12/31 02:00:13;;;;;;;;;;;;;;;5.11;75.52;97287.22;4961240;28;2446;-81
2022/12/31 02:02:40;;;;;;;;;;;;;;;5.15;75.33;97278.44;4965799;28;2258;-82
2022/12/31 02:05:06;;;;;;;;;;;;;;;5.15;75.42;97283.78;4961060;28;2257;-82
2022/12/31 02:07:33;;;;;;;;;;;;;;;5.12;75.48;97300.31;4963471;28;2276;-81
2022/12/31 02:09:59;;;;;;;;;;;;;;;5.12;75.65;97292.31;4940550;28;2287;-81
2022/12/31 02:12:26;;;;;;;;;;;;;;;5.15;75.65;97290.97;4959865;28;2389;-82
2022/12/31 02:14:53;;;;;;;;;;;;;;;5.10;75.75;97282.94;4941881;28;2303;-82
2022/12/31 02:17:19;;;;;;;;;;;;;;;5.13;75.56;97280.56;4965209;28;2415;-80
2022/12/31 02:19:46;;;;;;;;;;;;;;;5.15;75.56;97291.78;4937106;28;2277;-81
2022/12/31 02:22:13;;;;;;;;;;;;;;;5.14;75.64;97298.16;4958645;28;2254;-82
2022/12/31 02:24:39;;;;;;;;;;;;;;;5.13;75.80;97298.44;4958473;28;2377;-81
2022/12/31 02:27:06;;;;;;;;;;;;;;;5.14;75.79;97302.69;4954447;28;2511;-81
2022/12/31 02:29:32;;;;;;;;;;;;;;;5.10;75.88;97320.28;4946457;28;2341;-81
2022/12/31 02:31:59;;;;;;;;;;;;;;;5.11;75.88;97320.03;4957684;28;2678;-83
2022/12/31 02:34:25;;;;;;;;;;;;;;;5.12;75.84;97334.19;4939064;28;2313;-82
2022/12/31 02:36:52;;;;;;;;;;;;;;;5.12;75.77;97332.31;4944481;28;2598;-82
2022/12/31 02:39:18;;;;;;;;;;;;;;;5.15;75.66;97328.31;4957896;28;2350;-82
2022/12/31 02:41:51;;;;;;;;;;;;;;;5.11;75.93;97338.69;4946137;28;2206;-82
2022/12/31 02:44:17;;;;;;;;;;;;;;;5.13;75.95;97338.44;4966404;28;2565;-82
2022/12/31 02:46:44;;;;;;;;;;;;;;;5.15;76.03;97352.34;4949776;28;2278;-81
2022/12/31 02:49:10;;;;;;;;;;;;;;;5.11;75.91;97344.03;4944887;28;2275;-83
2022/12/31 02:51:37;;;;;;;;;;;;;;;5.11;75.99;97361.91;4960355;28;2246;-83
2022/12/31 02:54:04;;;;;;;;;;;;;;;5.12;76.04;97344.84;4962396;28;2205;-84
2022/12/31 02:56:30;;;;;;;;;;;;;;;5.12;76.16;97348.31;4947231;28;2168;-83
2022/12/31 03:04:32;;;;;;;;;;;;;;;5.11;76.18;97338.69;4944006;28;2251;-83
2022/12/31 03:06:59;;;;;;;;;;;;;;;5.10;76.30;97344.31;4946516;28;2624;-82
2022/12/31 03:09:25;;;;;;;;;;;;;;;5.10;76.22;97337.09;4960775;28;2246;-83
2022/12/31 03:14:36;;;;;;;;;;;;;;;5.11;76.27;97349.38;4940825;28;2703;-83
2022/12/31 03:17:03;;;;;;;;;;;;;;;5.14;75.97;97356.84;4968572;28;4111;-83
2022/12/31 03:22:29;;;;;;;;;;;;;;;5.12;76.30;97371.53;4943087;28;2271;-83
2022/12/31 03:27:40;;;;;;;;;;;;;;;5.11;76.31;97388.59;4940545;28;2498;-84
2022/12/31 03:30:07;;;;;;;;;;;;;;;5.11;76.44;97376.03;4960533;28;2327;-84
2022/12/31 03:32:33;;;;;;;;;;;;;;;5.11;76.38;97377.91;4943682;28;2300;-84
2022/12/31 03:35:00;;;;;;;;;;;;;;;5.10;76.42;97389.66;4958128;28;2264;-84
2022/12/31 03:37:26;;;;;;;;;;;;;;;5.11;76.17;97389.38;4961320;28;2447;-84
2022/12/31 03:39:53;;;;;;;;;;;;;;;5.14;76.31;97390.72;4959078;28;2316;-82
2022/12/31 03:42:19;;;;;;;;;;;;;;;5.11;76.18;97388.59;4960928;28;2500;-83
2022/12/31 03:44:46;;;;;;;;;;;;;;;5.13;76.25;97386.47;4947363;28;2279;-82
2022/12/31 03:47:12;;;;;;;;;;;;;;;5.13;76.29;97384.59;4959688;28;2543;-83
2022/12/31 03:49:39;;;;;;;;;;;;;;;5.11;76.30;97385.91;4944076;28;2290;-84
2022/12/31 03:52:07;;;;;;;;;;;;;;;5.11;76.31;97378.72;4961139;28;2332;-83
2022/12/31 03:54:33;;;;;;;;;;;;;;;5.09;76.28;97378.19;4959665;28;2285;-83
2022/12/31 03:57:00;;;;;;;;;;;;;;;5.12;76.25;97371.53;4956997;28;2222;-82
2022/12/31 03:59:27;;;;;;;;;;;;;;;5.11;76.19;97365.38;4960508;28;2394;-83
2022/12/31 04:01:53;;;;;;;;;;;;;;;5.09;76.19;97364.84;4939281;28;2305;-82
2022/12/31 04:04:20;;;;;;;;;;;;;;;5.11;76.25;97364.56;4959309;28;2341;-83
2022/12/31 04:06:46;;;;;;;;;;;;;;;5.10;76.28;97368.31;4958595;28;2490;-83
2022/12/31 04:09:13;;;;;;;;;;;;;;;5.09;76.29;97367.53;4955003;28;2347;-83
2022/12/31 04:11:39;;;;;;;;;;;;;;;5.09;76.34;97364.84;4941541;28;2212;-84
2022/12/31 04:14:06;;;;;;;;;;;;;;;5.09;76.22;97359.53;4939750;28;2230;-83
2022/12/31 04:16:32;;;;;;;;;;;;;;;5.09;76.33;97362.19;4946380;28;2495;-83
2022/12/31 04:18:59;;;;;;;;;;;;;;;5.12;76.13;97371.53;4955413;28;2717;-83
2022/12/31 04:21:25;;;;;;;;;;;;;;;5.11;76.14;97365.38;4954626;28;2333;-83
2022/12/31 04:23:52;;;;;;;;;;;;;;;5.09;76.55;97372.03;4935959;28;2278;-83
2022/12/31 04:26:19;;;;;;;;;;;;;;;5.08;76.27;97373.91;4957333;28;2719;-84
2022/12/31 04:28:45;;;;;;;;;;;;;;;5.08;76.35;97378.44;4961500;28;2294;-84
2022/12/31 04:31:12;;;;;;;;;;;;;;;5.07;76.22;97374.19;4944440;28;2366;-85
2022/12/31 04:33:38;;;;;;;;;;;;;;;5.06;76.44;97386.72;4948160;28;2595;-84
2022/12/31 04:36:05;;;;;;;;;;;;;;;5.07;76.46;97401.66;4948467;28;2184;-84
2022/12/31 04:38:31;;;;;;;;;;;;;;;5.10;76.46;97419.81;4961899;28;2129;-84
2022/12/31 04:41:16;;;;;;;;;;;;;;;5.10;76.44;97419.81;4963494;28;2239;-85
2022/12/31 04:43:43;;;;;;;;;;;;;;;5.09;76.45;97426.22;4944908;28;2270;-84
2022/12/31 04:46:10;;;;;;;;;;;;;;;5.08;76.47;97424.59;4963628;28;2694;-84
2022/12/31 04:48:36;;;;;;;;;;;;;;;5.08;76.72;97419.25;4973959;28;2269;-83
2022/12/31 04:51:03;;;;;;;;;;;;;;;5.06;76.69;97432.06;4943427;28;2200;-83
2022/12/31 04:53:30;;;;;;;;;;;;;;;5.06;76.62;97434.72;4951038;28;2567;-85
2022/12/31 04:55:56;;;;;;;;;;;;;;;5.05;76.47;97443.78;4961372;28;2405;-83
2022/12/31 04:58:23;;;;;;;;;;;;;;;5.05;76.54;97441.09;4946915;28;2206;-83
2022/12/31 05:00:49;;;;;;;;;;;;;;;5.06;76.68;97447.25;4971129;28;2361;-84
2022/12/31 05:03:16;;;;;;;;;;;;;;;5.05;76.54;97449.13;4962324;28;2410;-85
2022/12/31 05:05:43;;;;;;;;;;;;;;;5.05;76.66;97453.66;4956580;28;2263;-84
2022/12/31 05:08:10;;;;;;;;;;;;;;;5.05;76.68;97451.78;4952353;28;2270;-83
2022/12/31 05:10:36;;;;;;;;;;;;;;;5.05;76.62;97458.97;4964278;28;2530;-84
2022/12/31 05:13:03;;;;;;;;;;;;;;;5.03;76.71;97453.91;4962120;28;2388;-84
2022/12/31 05:15:29;;;;;;;;;;;;;;;5.07;76.61;97454.19;4949956;28;2240;-84
2022/12/31 05:17:56;;;;;;;;;;;;;;;5.04;76.64;97460.84;4943184;28;2232;-82
2022/12/31 05:20:22;;;;;;;;;;;;;;;5.03;76.69;97459.25;4946385;28;2304;-85
2022/12/31 05:22:49;;;;;;;;;;;;;;;5.01;77.00;97470.16;4944543;28;2270;-84
2022/12/31 05:25:15;;;;;;;;;;;;;;;5.04;76.71;97474.19;4948702;28;2330;-84
2022/12/31 05:27:42;;;;;;;;;;;;;;;5.05;76.64;97491.00;4963269;28;3894;-83
2022/12/31 05:30:08;;;;;;;;;;;;;;;5.07;76.78;97475.53;4962920;28;2953;-84
2022/12/31 05:32:35;;;;;;;;;;;;;;;5.06;76.58;97476.59;4944509;28;2355;-84
2022/12/31 05:35:01;;;;;;;;;;;;;;;5.03;76.65;97475.25;4943932;28;3961;-84
2022/12/31 05:37:28;;;;;;;;;;;;;;;5.06;76.69;97490.75;4963591;28;2253;-84
2022/12/31 05:39:55;;;;;;;;;;;;;;;5.05;76.85;97483.78;4948533;28;2311;-84
2022/12/31 05:42:21;;;;;;;;;;;;;;;5.01;76.88;97488.03;4962010;28;2442;-83
2022/12/31 05:44:48;;;;;;;;;;;;;;;5.02;76.79;97473.63;4958164;28;2336;-84
2022/12/31 05:47:15;;;;;;;;;;;;;;;5.02;76.79;97478.97;4966214;28;2339;-84
2022/12/31 05:49:41;;;;;;;;;;;;;;;5.02;76.99;97481.63;4943577;28;2371;-84
2022/12/31 05:52:08;;;;;;;;;;;;;;;5.03;76.81;97479.78;4966518;28;2355;-85
2022/12/31 05:54:35;;;;;;;;;;;;;;;5.01;76.94;97494.19;4962135;28;2265;-84
2022/12/31 05:57:01;;;;;;;;;;;;;;;5.01;77.03;97501.38;4964465;28;2411;-85
2022/12/31 05:59:28;;;;;;;;;;;;;;;5.03;76.87;97503.78;4974068;28;1976;-84
2022/12/31 06:01:55;;;;;;;;;;;;;;;5.00;76.86;97487.25;4972086;28;2239;-84
2022/12/31 06:04:21;;;;;;;;;;;;;;;5.09;76.58;97500.06;4969485;28;2420;-84
2022/12/31 06:06:48;;;;;;;;;;;;;;;5.03;76.97;97483.25;4960720;28;2249;-84
2022/12/31 06:09:14;;;;;;;;;;;;;;;5.02;76.93;97500.31;4976766;28;1417;-85
2022/12/31 06:11:41;;;;;;;;;;;;;;;5.04;76.89;97503.53;4975362;28;2249;-85
2022/12/31 06:14:07;;;;;;;;;;;;;;;5.01;76.99;97506.72;4966529;28;2228;-83
2022/12/31 06:16:34;;;;;;;;;;;;;;;4.99;76.81;97511.50;4966971;28;3085;-85
2022/12/31 06:19:01;;;;;;;;;;;;;;;4.99;76.75;97492.81;4963419;28;2328;-85
2022/12/31 06:21:27;;;;;;;;;;;;;;;5.03;76.84;97501.09;4948742;28;2372;-86
2022/12/31 06:23:54;;;;;;;;;;;;;;;5.04;76.73;97510.75;4943144;28;2502;-83
2022/12/31 06:26:20;;;;;;;;;;;;;;;5.01;77.00;97494.19;4944332;29;2314;-84
2022/12/31 06:28:47;;;;;;;;;;;;;;;4.99;77.08;97508.81;4968212;28;4360;-85
2022/12/31 06:31:14;;;;;;;;;;;;;;;4.99;76.80;97503.50;4955873;28;3069;-85
2022/12/31 06:33:40;;;;;;;;;;;;;;;4.98;76.94;97496.56;4964309;28;1907;-85
2022/12/31 06:36:07;;;;;;;;;;;;;;;5.00;76.69;97497.91;4957794;28;2130;-85
2022/12/31 06:38:33;;;;;;;;;;;;;;;5.00;76.67;97500.59;4962983;28;2411;-85
2022/12/31 06:41:00;;;;;;;;;;;;;;;4.97;77.08;97511.78;4963629;28;2241;-85
2022/12/31 06:43:26;;;;;;;;;;;;;;;4.96;76.87;97517.34;4963507;28;2099;-85
2022/12/31 06:45:53;;;;;;;;;;;;;;;4.99;76.81;97514.97;4967711;28;2558;-84
2022/12/31 06:48:20;;;;;;;;;;;;;;;4.98;76.90;97505.38;4961423;28;2048;-86
2022/12/31 06:50:46;;;;;;;;;;;;;;;5.01;76.67;97526.19;4962465;28;2104;-85
2022/12/31 06:53:13;;;;;;;;;;;;;;;5.02;76.63;97513.66;4956904;28;2141;-85
2022/12/31 06:55:40;;;;;;;;;;;;;;;5.00;76.63;97500.59;4965896;28;2027;-85
2022/12/31 06:58:07;;;;;;;;;;;;;;;5.01;76.79;97510.19;4959910;28;2123;-85
2022/12/31 07:00:33;;;;;;;;;;;;;;;5.04;76.79;97519.53;4965562;28;2096;-85
2022/12/31 07:03:00;;;;;;;;;;;;;;;4.97;76.74;97513.59;4960750;28;2088;-84
2022/12/31 07:05:27;;;;;;;;;;;;;;;4.96;76.83;97536.03;4962822;28;2095;-84
2022/12/31 07:07:53;;;;;;;;;;;;;;;4.98;76.75;97534.69;4967051;28;2106;-84
2022/12/31 07:10:20;;;;;;;;;;;;;;;5.00;76.91;97555.81;4945095;28;4200;-85
2022/12/31 07:12:46;;;;;;;;;;;;;;;4.95;76.84;97551.22;4947701;28;2196;-86
2022/12/31 07:15:13;;;;;;;;;;;;;;;4.99;76.85;97548.84;4962392;28;2609;-85
2022/12/31 07:17:39;;;;;;;;;;;;;;;5.06;76.63;97561.94;4948753;28;2337;-84
2022/12/31 07:20:06;;;;;;;;;;;;;;;5.02;76.55;97561.66;4964093;28;2284;-86
2022/12/31 07:22:33;;;;;;;;;;;;;;;5.01;76.55;97560.88;4968289;28;2466;-86
2022/12/31 07:24:59;;;;;;;;;;;;;;;4.98;76.75;97552.56;4948801;28;2167;-86
2022/12/31 07:27:26;;;;;;;;;;;;;;;4.98;76.68;97564.03;4943446;28;2118;-86
2022/12/31 07:29:53;;;;;;;;;;;;;;;4.98;76.83;97548.03;4959695;28;2083;-86
2022/12/31 07:32:19;;;;;;;;;;;;;;;5.06;76.37;97578.78;4948039;28;2152;-86
2022/12/31 07:34:46;;;;;;;;;;;;;;;4.98;76.65;97572.03;4961179;28;811;-86
2022/12/31 07:37:12;;;;;;;;;;;;;;;4.95;76.73;97577.09;4973653;28;1471;-85
2022/12/31 07:39:39;;;;;;;;;;;;;;;5.09;76.23;97578.28;4957073;28;2326;-85
2022/12/31 07:42:06;;;;;;;;;;;;;;;5.00;76.53;97577.94;4947397;28;1891;-86
2022/12/31 07:44:32;;;;;;;;;;;;;;;5.00;76.54;97579.81;4967514;28;1973;-85
2022/12/31 07:46:59;;;;;;;;;;;;;;;4.94;76.86;97576.28;4961012;28;2614;-86
2022/12/31 07:49:26;;;;;;;;;;;;;;;4.95;76.83;97577.09;4960929;28;1918;-85
2022/12/31 07:51:53;;;;;;;;;;;;;;;4.92;77.00;97565.06;4943200;28;1896;-85
2022/12/31 07:54:19;;;;;;;;;;;;;;;4.92;77.02;97564.28;4956914;28;4824;-86
2022/12/31 07:56:46;;;;;;;;;;;;;;;4.90;76.94;97561.84;4959103;28;3609;-85
2022/12/31 07:59:12;;;;;;;;;;;;;;;4.91;77.07;97566.13;4969043;28;3814;-85
2022/12/31 08:01:39;;;;;;;;;;;;;;;4.90;76.95;97572.50;4951988;28;3987;-86
2022/12/31 08:04:06;;;;;;;;;;;;;;;4.90;77.11;97574.38;4960663;28;3971;-84
2022/12/31 08:06:32;;;;;;;;;;;;;;;4.91;77.00;97581.31;4963679;28;2228;-85
2022/12/31 08:08:59;;;;;;;;;;;;;;;4.93;76.77;97588.00;4972090;28;2099;-85
2022/12/31 08:11:26;;;;;;;;;;;;;;;4.92;76.90;97583.75;4977663;28;2369;-84
2022/12/31 08:13:52;;;;;;;;;;;;;;;4.92;76.87;97581.06;4969016;28;2009;-83
2022/12/31 08:16:20;;;;;;;;;;;;;;;4.90;76.85;97585.06;4941091;29;3881;-85
2022/12/31 08:18:47;;;;;;;;;;;;;;;4.89;77.09;97586.13;4948591;28;1997;-84
2022/12/31 08:21:14;;;;;;;;;;;;;;;4.88;77.06;97595.16;4967884;28;2153;-84
2022/12/31 08:23:40;;;;;;;;;;;;;;;4.90;77.02;97601.06;4966587;28;2247;-84
2022/12/31 08:26:07;;;;;;;;;;;;;;;4.88;77.06;97606.66;4950100;28;2496;-84
2022/12/31 08:28:34;;;;;;;;;;;;;;;4.87;77.23;97602.34;4968084;28;2076;-86
2022/12/31 08:31:00;;;;;;;;;;;;;;;4.87;77.20;97605.03;4954509;28;2038;-85
2022/12/31 08:33:27;;;;;;;;;;;;;;;4.87;77.17;97613.03;4975397;28;1908;-85
2022/12/31 08:35:53;;;;;;;;;;;;;;;4.86;77.08;97613.28;4948479;28;2035;-85
2022/12/31 08:38:20;;;;;;;;;;;;;;;4.89;77.11;97626.13;4953932;29;2145;-84
2022/12/31 08:40:46;;;;;;;;;;;;;;;4.86;77.11;97619.44;4944393;29;2402;-85
2022/12/31 08:43:13;;;;;;;;;;;;;;;4.86;77.31;97614.09;4972638;28;1839;-84
2022/12/31 08:45:39;;;;;;;;;;;;;;;4.88;77.07;97598.66;4969693;28;1983;-86
2022/12/31 08:48:06;;;;;;;;;;;;;;;4.87;77.03;97602.34;4967444;28;2141;-85
2022/12/31 08:50:33;;;;;;;;;;;;;;;4.86;77.20;97595.44;4953212;28;1891;-83
2022/12/31 08:52:59;;;;;;;;;;;;;;;4.85;77.50;97603.66;4953577;28;2001;-86
2022/12/31 08:55:26;;;;;;;;;;;;;;;4.85;77.14;97577.81;4955947;28;2241;-85
2022/12/31 08:57:52;;;;;;;;;;;;;;;4.87;77.33;97582.91;4955280;28;2241;-85
2022/12/31 09:00:19;;;;;;;;;;;;;;;4.84;77.06;97576.19;4947181;28;1933;-85
2022/12/31 09:02:45;;;;;;;;;;;;;;;4.85;77.34;97587.66;4954166;28;2061;-87
2022/12/31 09:05:12;;;;;;;;;;;;;;;4.83;77.27;97571.94;4964425;28;2088;-87
2022/12/31 09:07:38;;;;;;;;;;;;;;;4.93;76.69;97574.66;4968317;28;2031;-83
2022/12/31 09:10:05;;;;;;;;;;;;;;;4.88;76.98;97606.66;4963738;28;2091;-84
2022/12/31 09:12:31;;;;;;;;;;;;;;;4.82;77.15;97564.97;4966711;28;2246;-83
2022/12/31 09:14:58;;;;;;;;;;;;;;;4.82;77.78;97556.19;4968132;28;2116;-83
2022/12/31 09:17:24;;;;;;;;;;;;;;;4.79;77.36;97554.81;4966546;28;2601;-83
2022/12/31 09:19:51;;;;;;;;;;;;;;;4.83;77.36;97566.59;4952162;28;2459;-83
2022/12/31 09:22:18;;;;;;;;;;;;;;;4.80;77.52;97540.44;4968358;28;2512;-83
2022/12/31 09:24:44;;;;;;;;;;;;;;;4.82;77.37;97556.97;4960433;28;2383;-84
2022/12/31 09:27:11;;;;;;;;;;;;;;;4.84;77.47;97554.88;4958816;28;2219;-84
2022/12/31 09:29:37;;;;;;;;;;;;;;;4.85;77.21;97550.34;4957905;28;2283;-84
2022/12/31 09:32:04;;;;;;;;;;;;;;;4.83;77.62;97552.47;4964706;28;2090;-83
2022/12/31 09:34:30;;;;;;;;;;;;;;;4.85;77.36;97537.00;4944671;28;2204;-84
2022/12/31 09:36:57;;;;;;;;;;;;;;;4.87;77.56;97557.03;4966354;28;2102;-84
2022/12/31 09:39:23;;;;;;;;;;;;;;;4.85;77.31;97547.66;4970568;28;1976;-84
2022/12/31 09:41:52;;;;;;;;;;;;;;;4.85;77.27;97556.47;4950144;28;2110;-84
2022/12/31 09:44:20;;;;;;;;;;;;;;;4.88;77.15;97539.16;4969275;28;2027;-83
2022/12/31 09:46:46;;;;;;;;;;;;;;;4.89;77.09;97504.25;4968014;28;2097;-84
2022/12/31 09:49:13;;;;;;;;;;;;;;;4.90;76.92;97529.84;4967095;28;1996;-83
2022/12/31 09:51:39;;;;;;;;;;;;;;;4.90;77.08;97529.84;4964654;28;2263;-84
2022/12/31 09:54:06;;;;;;;;;;;;;;;4.90;77.13;97535.19;4943139;28;2208;-82
2022/12/31 09:56:32;;;;;;;;;;;;;;;4.92;76.97;97551.72;4963968;28;4563;-82
2022/12/31 09:58:59;;;;;;;;;;;;;;;4.93;76.94;97542.66;4964558;28;3449;-83
2022/12/31 10:01:26;;;;;;;;;;;;;;;4.91;77.03;97530.63;4965857;28;3728;-83
2022/12/31 10:03:52;;;;;;;;;;;;;;;4.92;76.89;97550.94;4946706;28;2156;-83
2022/12/31 10:06:19;;;;;;;;;;;;;;;4.92;76.86;97537.59;4966619;28;2122;-84
2022/12/31 10:08:46;;;;;;;;;;;;;;;4.92;77.28;97541.06;4946164;28;2225;-83
2022/12/31 10:11:13;;;;;;;;;;;;;;;4.91;77.01;97531.47;4947755;28;2276;-85
2022/12/31 10:13:39;;;;;;;;;;;;;;;4.90;77.32;97526.38;4957185;28;2115;-84
2022/12/31 10:16:06;;;;;;;;;;;;;;;4.93;77.13;97536.53;4968872;28;2116;-85
2022/12/31 10:18:32;;;;;;;;;;;;;;;4.94;76.94;97535.47;4953551;28;2107;-85
2022/12/31 10:20:59;;;;;;;;;;;;;;;4.92;76.97;97521.59;4962552;28;2337;-84
2022/12/31 10:23:26;;;;;;;;;;;;;;;4.93;76.85;97528.53;4967985;28;2400;-83
2022/12/31 10:25:52;;;;;;;;;;;;;;;4.92;76.74;97513.59;4955638;28;2578;-83
2022/12/31 10:28:19;;;;;;;;;;;;;;;4.91;76.89;97542.13;4971101;28;2538;-84
2022/12/31 10:30:45;;;;;;;;;;;;;;;4.92;76.88;97546.41;4968235;28;2235;-84
2022/12/31 10:33:12;;;;;;;;;;;;;;;4.93;76.69;97536.53;4958105;28;2338;-84
2022/12/31 10:35:39;;;;;;;;;;;;;;;4.91;76.79;97542.13;4965063;28;3898;-84
2022/12/31 10:38:05;;;;;;;;;;;;;;;4.92;76.87;97558.94;4972900;28;2047;-84
2022/12/31 10:40:32;;;;;;;;;;;;;;;4.90;76.99;97561.84;4967615;28;2917;-84
2022/12/31 10:42:58;;;;;;;;;;;;;;;4.90;76.92;97571.72;4951683;28;2249;-84
2022/12/31 10:45:25;;;;;;;;;;;;;;;4.90;77.07;97559.19;4952036;28;1943;-84
2022/12/31 10:47:52;;;;;;;;;;;;;;;4.91;76.87;97554.66;4975011;28;4326;-84
2022/12/31 10:50:18;;;;;;;;;;;;;;;4.88;76.87;97571.97;4961934;28;2213;-84
2022/12/31 10:52:45;;;;;;;;;;;;;;;4.89;76.85;97562.91;4942580;28;2290;-84
2022/12/31 10:55:11;;;;;;;;;;;;;;;4.88;76.89;97553.31;4964201;28;2290;-82
2022/12/31 10:57:38;;;;;;;;;;;;;;;4.91;76.84;97574.13;4955045;28;2140;-84
2022/12/31 11:00:04;;;;;;;;;;;;;;;4.91;76.76;97590.16;4954495;28;2165;-84
2022/12/31 11:02:31;;;;;;;;;;;;;;;4.89;76.70;97578.91;4962436;28;2282;-83
2022/12/31 11:05:07;;;;;;;;;;;;;;;4.90;76.80;97585.84;5130672;27;2033;-79
2022/12/31 11:07:34;;;;;;;;;;;;;;;4.89;77.25;97576.25;5126805;27;2027;-79
2022/12/31 11:10:01;;;;;;;;;;;;;;;4.92;76.91;97598.94;5128838;27;1985;-79
2022/12/31 11:12:27;;;;;;;;;;;;;;;4.89;77.06;97600.25;5149025;27;1948;-79
2022/12/31 11:14:54;;;;;;;;;;;;;;;4.89;77.11;97618.91;5122348;27;1733;-80
2022/12/31 11:17:20;;;;;;;;;;;;;;;4.91;77.26;97606.16;5119066;27;1918;-80
2022/12/31 11:19:47;;;;;;;;;;;;;;;4.92;76.83;97615.75;5154778;27;1775;-80
2022/12/31 11:22:13;;;;;;;;;;;;;;;4.91;77.26;97623.97;5125670;28;1096;-80
2022/12/31 11:24:40;;;;;;;;;;;;;;;4.91;77.12;97619.47;5123138;27;1975;-80
2022/12/31 11:27:07;;;;;;;;;;;;;;;4.90;77.08;97601.84;5119813;27;1803;-80
2022/12/31 11:29:34;;;;;;;;;;;;;;;4.92;76.79;97638.94;5124571;27;1764;-79
2022/12/31 11:32:01;;;;;;;;;;;;;;;4.93;77.10;97644.00;5119881;27;2279;-80
2022/12/31 11:34:28;;;;;;;;;;;;;;;4.93;76.99;97652.00;5126245;27;1863;-80
2022/12/31 11:36:55;;;;;;;;;;;;;;;4.93;77.01;97645.88;5135876;27;1907;-80
2022/12/31 11:39:23;;;;;;;;;;;;;;;4.96;76.91;97674.72;5124159;27;1451;-80
2022/12/31 11:41:49;;;;;;;;;;;;;;;4.96;76.72;97658.72;5119746;27;2175;-80
2022/12/31 11:44:23;;;;;;;;;;;;;;;4.97;76.85;97684.31;5116328;27;2159;-80
2022/12/31 11:46:50;;;;;;;;;;;;;;;4.96;76.89;97669.38;5116944;27;2245;-79
2022/12/31 11:49:19;;;;;;;;;;;;;;;4.97;76.76;97687.81;5114739;27;2163;-81
2022/12/31 11:51:51;;;;;;;;;;;;;;;4.96;76.87;97690.72;5106802;27;2186;-81
2022/12/31 11:54:18;;;;;;;;;;;;;;;4.95;76.89;97695.25;5136704;27;2015;-80
2022/12/31 11:56:54;;;;;;;;;;;;;;;;;;;;;
2022/12/31 11:59:21;;;;;;;;;;;;;;;4.98;76.60;97702.75;5104329;27;2313;-82
2022/12/31 12:01:49;;;;;;;;;;;;;;;4.98;76.62;97710.75;5106491;27;2142;-82
2022/12/31 12:04:15;;;;;;;;;;;;;;;4.96;76.74;97733.41;5157222;27;2418;-81
2022/12/31 12:06:44;;;;;;;;;;;;;;;5.14;76.29;97729.56;5131657;27;2351;-81
2022/12/31 12:09:11;;;;;;;;;;;;;;;5.02;76.37;97740.38;5131852;27;2458;-81
2022/12/31 12:11:37;;;;;;;;;;;;;;;4.99;76.69;97740.88;5129668;27;2374;-81
2022/12/31 12:14:04;;;;;;;;;;;;;;;5.00;76.69;97724.66;5130927;27;1961;-81
2022/12/31 12:16:30;;;;;;;;;;;;;;;5.04;76.40;97730.28;5114407;27;2379;-80
2022/12/31 12:18:57;;;;;;;;;;;;;;;5.10;76.20;97737.28;5144979;27;2264;-83
2022/12/31 12:21:23;;;;;;;;;;;;;;;5.04;76.29;97756.97;5119728;27;1937;-83
2022/12/31 12:23:50;;;;;;;;;;;;;;;5.15;75.91;97774.69;5119653;27;2074;-82
2022/12/31 12:26:16;;;;;;;;;;;;;;;5.14;75.81;97798.94;5119494;27;4475;-80
2022/12/31 12:28:43;;;;;;;;;;;;;;;5.20;75.56;97809.41;5119275;27;2081;-81
2022/12/31 12:31:12;;;;;;;;;;;;;;;5.17;75.71;97817.09;5115052;27;2520;-81
2022/12/31 12:33:38;;;;;;;;;;;;;;;5.22;75.55;97825.16;5152043;27;2134;-81
2022/12/31 12:36:05;;;;;;;;;;;;;;;5.10;75.95;97824.50;5116342;27;2107;-81
2022/12/31 12:38:32;;;;;;;;;;;;;;;5.21;75.33;97828.91;5131508;27;2003;-82
2022/12/31 12:40:58;;;;;;;;;;;;;;;5.25;75.08;97824.66;5118846;27;2064;-81
2022/12/31 12:43:25;;;;;;;;;;;;;;;5.06;76.16;97818.03;5115895;27;4793;-81
2022/12/31 12:45:52;;;;;;;;;;;;;;;5.08;76.09;97847.97;5116510;27;2621;-80
2022/12/31 12:48:19;;;;;;;;;;;;;;;5.12;75.83;97857.09;5124125;27;2136;-83
2022/12/31 12:50:48;;;;;;;;;;;;;;;5.12;75.76;97860.56;5116288;27;3777;-81
2022/12/31 12:53:14;;;;;;;;;;;;;;;5.29;75.06;97859.66;5115663;27;2399;-81
2022/12/31 12:55:41;;;;;;;;;;;;;;;5.14;75.87;97862.97;5113122;27;2590;-80
2022/12/31 12:58:08;;;;;;;;;;;;;;;5.07;76.00;97883.72;5113604;27;2272;-81
2022/12/31 13:00:34;;;;;;;;;;;;;;;5.05;76.14;97894.63;5124045;27;2021;-81
2022/12/31 13:03:01;;;;;;;;;;;;;;;5.11;76.01;97895.47;5112880;27;2085;-83
2022/12/31 13:05:27;;;;;;;;;;;;;;;5.10;76.04;97899.22;5114123;27;2241;-81
2022/12/31 13:07:54;;;;;;;;;;;;;;;5.16;76.01;97908.88;5114460;27;2144;-81
2022/12/31 13:10:20;;;;;;;;;;;;;;;5.19;75.77;97913.72;5128500;27;2380;-81
2022/12/31 13:12:47;;;;;;;;;;;;;;;5.16;75.97;97922.22;5124277;27;2151;-82
2022/12/31 13:15:14;;;;;;;;;;;;;;;5.20;75.83;97934.81;5117581;27;2278;-81
2022/12/31 13:17:40;;;;;;;;;;;;;;;5.15;75.83;97934.78;5114224;27;2398;-82